sensor_id;sensor_type;location;lat;lon;timestamp;temperature;humidity
33574;DHT22;20085;50.832;4.392;2022-08-21T00:02:03;22.10;71.70
33574;DHT22;20085;50.832;4.392;2022-08-21T00:04:29;22.00;72.00
33574;DHT22;20085;50.832;4.392;2022-08-21T00:06:58;22.00;72.20
33574;DHT22;20085;50.832;4.392;2022-08-21T00:09:24;22.00;72.20
33574;DHT22;20085;50.832;4.392;2022-08-21T00:11:49;22.00;72.30
33574;DHT22;20085;50.832;4.392;2022-08-21T00:14:15;22.00;72.50
33574;DHT22;20085;50.832;4.392;2022-08-21T00:16:41;22.00;72.60
33574;DHT22;20085;50.832;4.392;2022-08-21T00:19:07;22.00;72.70
33574;DHT22;20085;50.832;4.392;2022-08-21T00:21:35;21.90;72.90
33574;DHT22;20085;50.832;4.392;2022-08-21T00:24:00;21.80;73.10
33574;DHT22;20085;50.832;4.392;2022-08-21T00:26:26;21.80;73.40
33574;DHT22;20085;50.832;4.392;2022-08-21T00:28:52;21.70;73.50
33574;DHT22;20085;50.832;4.392;2022-08-21T00:31:18;21.70;73.70
33574;DHT22;20085;50.832;4.392;2022-08-21T00:33:44;21.70;73.80
33574;DHT22;20085;50.832;4.392;2022-08-21T00:36:11;21.70;73.80
33574;DHT22;20085;50.832;4.392;2022-08-21T00:38:36;21.70;73.90
33574;DHT22;20085;50.832;4.392;2022-08-21T00:41:03;21.70;74.00
33574;DHT22;20085;50.832;4.392;2022-08-21T00:43:33;21.60;74.10
33574;DHT22;20085;50.832;4.392;2022-08-21T00:45:59;21.60;74.30
33574;DHT22;20085;50.832;4.392;2022-08-21T00:48:26;21.50;74.40
33574;DHT22;20085;50.832;4.392;2022-08-21T00:51:15;21.50;74.40
33574;DHT22;20085;50.832;4.392;2022-08-21T00:53:45;21.50;74.40
33574;DHT22;20085;50.832;4.392;2022-08-21T00:56:11;21.50;75.00
33574;DHT22;20085;50.832;4.392;2022-08-21T00:58:41;21.40;74.70
33574;DHT22;20085;50.832;4.392;2022-08-21T01:01:08;21.40;74.80
33574;DHT22;20085;50.832;4.392;2022-08-21T01:03:35;21.40;75.00
33574;DHT22;20085;50.832;4.392;2022-08-21T01:06:03;21.30;75.00
33574;DHT22;20085;50.832;4.392;2022-08-21T01:08:29;21.30;75.10
33574;DHT22;20085;50.832;4.392;2022-08-21T01:10:56;21.30;75.30
33574;DHT22;20085;50.832;4.392;2022-08-21T01:13:24;21.40;76.10
33574;DHT22;20085;50.832;4.392;2022-08-21T01:15:53;21.30;75.30
33574;DHT22;20085;50.832;4.392;2022-08-21T01:18:20;21.30;75.30
33574;DHT22;20085;50.832;4.392;2022-08-21T01:21:06;21.30;75.30
33574;DHT22;20085;50.832;4.392;2022-08-21T01:23:31;21.30;75.40
33574;DHT22;20085;50.832;4.392;2022-08-21T01:25:57;21.30;75.50
33574;DHT22;20085;50.832;4.392;2022-08-21T01:28:24;21.20;75.60
33574;DHT22;20085;50.832;4.392;2022-08-21T01:30:51;21.30;75.70
33574;DHT22;20085;50.832;4.392;2022-08-21T01:35:44;21.20;75.80
33574;DHT22;20085;50.832;4.392;2022-08-21T01:38:10;21.20;75.90
33574;DHT22;20085;50.832;4.392;2022-08-21T01:40:35;21.10;76.20
33574;DHT22;20085;50.832;4.392;2022-08-21T01:43:01;21.10;76.20
33574;DHT22;20085;50.832;4.392;2022-08-21T01:45:28;21.10;76.20
33574;DHT22;20085;50.832;4.392;2022-08-21T01:47:54;21.10;76.30
33574;DHT22;20085;50.832;4.392;2022-08-21T01:50:20;21.10;76.50
33574;DHT22;20085;50.832;4.392;2022-08-21T01:52:47;21.10;76.50
33574;DHT22;20085;50.832;4.392;2022-08-21T01:55:13;21.10;76.70
33574;DHT22;20085;50.832;4.392;2022-08-21T01:57:39;21.10;76.90
33574;DHT22;20085;50.832;4.392;2022-08-21T02:00:08;21.10;77.20
33574;DHT22;20085;50.832;4.392;2022-08-21T02:02:35;21.10;76.90
33574;DHT22;20085;50.832;4.392;2022-08-21T02:05:01;21.00;77.10
33574;DHT22;20085;50.832;4.392;2022-08-21T02:07:26;21.00;77.30
33574;DHT22;20085;50.832;4.392;2022-08-21T02:09:52;21.00;77.40
33574;DHT22;20085;50.832;4.392;2022-08-21T02:12:19;21.00;77.40
33574;DHT22;20085;50.832;4.392;2022-08-21T02:14:44;21.00;77.60
33574;DHT22;20085;50.832;4.392;2022-08-21T02:17:10;21.00;77.60
33574;DHT22;20085;50.832;4.392;2022-08-21T02:19:37;21.00;77.80
33574;DHT22;20085;50.832;4.392;2022-08-21T02:22:03;20.90;78.00
33574;DHT22;20085;50.832;4.392;2022-08-21T02:24:28;20.90;78.00
33574;DHT22;20085;50.832;4.392;2022-08-21T02:26:54;20.80;78.20
33574;DHT22;20085;50.832;4.392;2022-08-21T02:29:19;20.80;78.50
33574;DHT22;20085;50.832;4.392;2022-08-21T02:31:45;20.80;78.50
33574;DHT22;20085;50.832;4.392;2022-08-21T02:34:11;20.80;78.50
33574;DHT22;20085;50.832;4.392;2022-08-21T02:36:36;20.80;78.40
33574;DHT22;20085;50.832;4.392;2022-08-21T02:39:02;20.70;78.50
33574;DHT22;20085;50.832;4.392;2022-08-21T02:41:28;20.70;78.70
33574;DHT22;20085;50.832;4.392;2022-08-21T02:43:53;20.70;79.00
33574;DHT22;20085;50.832;4.392;2022-08-21T02:46:20;20.70;79.00
33574;DHT22;20085;50.832;4.392;2022-08-21T02:48:47;20.70;79.20
33574;DHT22;20085;50.832;4.392;2022-08-21T02:51:17;20.70;79.30
33574;DHT22;20085;50.832;4.392;2022-08-21T02:53:43;20.70;79.30
33574;DHT22;20085;50.832;4.392;2022-08-21T02:56:15;20.70;79.30
33574;DHT22;20085;50.832;4.392;2022-08-21T02:58:47;20.70;79.10
33574;DHT22;20085;50.832;4.392;2022-08-21T03:01:14;20.70;79.30
33574;DHT22;20085;50.832;4.392;2022-08-21T03:03:43;20.60;79.30
33574;DHT22;20085;50.832;4.392;2022-08-21T03:06:11;20.60;79.50
33574;DHT22;20085;50.832;4.392;2022-08-21T03:08:37;20.60;79.80
33574;DHT22;20085;50.832;4.392;2022-08-21T03:11:03;20.60;79.90
33574;DHT22;20085;50.832;4.392;2022-08-21T03:13:29;20.60;80.10
33574;DHT22;20085;50.832;4.392;2022-08-21T03:15:55;20.50;80.20
33574;DHT22;20085;50.832;4.392;2022-08-21T03:18:21;20.60;80.30
33574;DHT22;20085;50.832;4.392;2022-08-21T03:20:47;20.50;80.40
33574;DHT22;20085;50.832;4.392;2022-08-21T03:23:15;20.50;80.70
33574;DHT22;20085;50.832;4.392;2022-08-21T03:25:41;20.50;80.90
33574;DHT22;20085;50.832;4.392;2022-08-21T03:28:13;20.50;81.10
33574;DHT22;20085;50.832;4.392;2022-08-21T03:30:44;20.40;81.30
33574;DHT22;20085;50.832;4.392;2022-08-21T03:33:10;20.40;81.30
33574;DHT22;20085;50.832;4.392;2022-08-21T03:35:36;20.40;81.60
33574;DHT22;20085;50.832;4.392;2022-08-21T03:38:01;20.40;81.70
33574;DHT22;20085;50.832;4.392;2022-08-21T03:40:27;20.40;81.40
33574;DHT22;20085;50.832;4.392;2022-08-21T03:42:53;20.40;81.30
33574;DHT22;20085;50.832;4.392;2022-08-21T03:45:19;20.40;81.30
33574;DHT22;20085;50.832;4.392;2022-08-21T03:48:05;20.40;81.50
33574;DHT22;20085;50.832;4.392;2022-08-21T03:50:37;20.40;81.70
33574;DHT22;20085;50.832;4.392;2022-08-21T03:53:04;20.30;81.80
33574;DHT22;20085;50.832;4.392;2022-08-21T03:55:29;20.30;81.90
33574;DHT22;20085;50.832;4.392;2022-08-21T03:57:55;20.40;82.00
33574;DHT22;20085;50.832;4.392;2022-08-21T04:00:21;20.30;81.90
33574;DHT22;20085;50.832;4.392;2022-08-21T04:02:46;20.30;82.10
33574;DHT22;20085;50.832;4.392;2022-08-21T04:05:14;20.30;82.20
33574;DHT22;20085;50.832;4.392;2022-08-21T04:07:40;20.30;82.20
33574;DHT22;20085;50.832;4.392;2022-08-21T04:10:06;20.20;82.20
33574;DHT22;20085;50.832;4.392;2022-08-21T04:12:32;20.30;82.40
33574;DHT22;20085;50.832;4.392;2022-08-21T04:14:58;20.30;82.10
33574;DHT22;20085;50.832;4.392;2022-08-21T04:17:24;20.20;82.20
33574;DHT22;20085;50.832;4.392;2022-08-21T04:19:49;20.30;82.30
33574;DHT22;20085;50.832;4.392;2022-08-21T04:22:16;20.20;82.20
33574;DHT22;20085;50.832;4.392;2022-08-21T04:24:42;20.10;82.40
33574;DHT22;20085;50.832;4.392;2022-08-21T04:27:07;20.10;82.60
33574;DHT22;20085;50.832;4.392;2022-08-21T04:29:33;20.10;82.80
33574;DHT22;20085;50.832;4.392;2022-08-21T04:31:59;20.10;82.90
33574;DHT22;20085;50.832;4.392;2022-08-21T04:34:25;20.10;82.90
33574;DHT22;20085;50.832;4.392;2022-08-21T04:36:50;20.10;83.00
33574;DHT22;20085;50.832;4.392;2022-08-21T04:39:16;20.10;83.10
33574;DHT22;20085;50.832;4.392;2022-08-21T04:41:41;20.10;83.10
33574;DHT22;20085;50.832;4.392;2022-08-21T04:44:07;20.00;83.40
33574;DHT22;20085;50.832;4.392;2022-08-21T04:46:34;20.00;83.70
33574;DHT22;20085;50.832;4.392;2022-08-21T04:48:59;20.00;83.70
33574;DHT22;20085;50.832;4.392;2022-08-21T04:51:29;20.00;83.90
33574;DHT22;20085;50.832;4.392;2022-08-21T04:54:08;19.90;83.90
33574;DHT22;20085;50.832;4.392;2022-08-21T04:56:35;20.00;84.10
33574;DHT22;20085;50.832;4.392;2022-08-21T04:59:06;19.90;84.30
33574;DHT22;20085;50.832;4.392;2022-08-21T05:01:37;19.90;84.40
33574;DHT22;20085;50.832;4.392;2022-08-21T05:04:05;19.80;84.50
33574;DHT22;20085;50.832;4.392;2022-08-21T05:06:35;19.90;84.60
33574;DHT22;20085;50.832;4.392;2022-08-21T05:09:03;19.90;84.70
33574;DHT22;20085;50.832;4.392;2022-08-21T05:11:30;19.90;84.80
33574;DHT22;20085;50.832;4.392;2022-08-21T05:13:56;19.90;84.70
33574;DHT22;20085;50.832;4.392;2022-08-21T05:16:22;19.90;85.40
33574;DHT22;20085;50.832;4.392;2022-08-21T05:18:47;19.90;84.70
33574;DHT22;20085;50.832;4.392;2022-08-21T05:21:13;19.90;84.60
33574;DHT22;20085;50.832;4.392;2022-08-21T05:23:39;19.80;84.70
33574;DHT22;20085;50.832;4.392;2022-08-21T05:26:04;19.70;85.10
33574;DHT22;20085;50.832;4.392;2022-08-21T05:28:31;19.70;85.30
33574;DHT22;20085;50.832;4.392;2022-08-21T05:30:57;19.70;85.40
33574;DHT22;20085;50.832;4.392;2022-08-21T05:33:22;19.70;85.40
33574;DHT22;20085;50.832;4.392;2022-08-21T05:35:53;19.70;85.50
33574;DHT22;20085;50.832;4.392;2022-08-21T05:38:21;19.70;85.70
33574;DHT22;20085;50.832;4.392;2022-08-21T05:40:46;19.80;85.70
33574;DHT22;20085;50.832;4.392;2022-08-21T05:43:12;19.80;85.50
33574;DHT22;20085;50.832;4.392;2022-08-21T05:45:38;19.80;85.30
33574;DHT22;20085;50.832;4.392;2022-08-21T05:48:11;19.80;85.20
33574;DHT22;20085;50.832;4.392;2022-08-21T05:50:37;19.80;85.30
33574;DHT22;20085;50.832;4.392;2022-08-21T05:53:04;19.80;85.50
33574;DHT22;20085;50.832;4.392;2022-08-21T05:55:29;19.70;85.80
33574;DHT22;20085;50.832;4.392;2022-08-21T05:57:55;19.70;85.90
33574;DHT22;20085;50.832;4.392;2022-08-21T06:00:21;19.70;86.00
33574;DHT22;20085;50.832;4.392;2022-08-21T06:02:48;19.70;86.10
33574;DHT22;20085;50.832;4.392;2022-08-21T06:05:15;19.70;86.20
33574;DHT22;20085;50.832;4.392;2022-08-21T06:07:40;19.70;86.20
33574;DHT22;20085;50.832;4.392;2022-08-21T06:10:07;19.70;86.20
33574;DHT22;20085;50.832;4.392;2022-08-21T06:12:32;19.70;86.20
33574;DHT22;20085;50.832;4.392;2022-08-21T06:14:58;19.70;86.30
33574;DHT22;20085;50.832;4.392;2022-08-21T06:17:23;19.70;86.30
33574;DHT22;20085;50.832;4.392;2022-08-21T06:19:53;19.70;86.40
33574;DHT22;20085;50.832;4.392;2022-08-21T06:22:19;19.70;86.40
33574;DHT22;20085;50.832;4.392;2022-08-21T06:24:46;19.70;86.20
33574;DHT22;20085;50.832;4.392;2022-08-21T06:27:11;19.80;87.00
33574;DHT22;20085;50.832;4.392;2022-08-21T06:29:37;19.70;86.30
33574;DHT22;20085;50.832;4.392;2022-08-21T06:32:03;19.70;86.50
33574;DHT22;20085;50.832;4.392;2022-08-21T06:34:30;19.70;86.40
33574;DHT22;20085;50.832;4.392;2022-08-21T06:36:56;19.80;86.20
33574;DHT22;20085;50.832;4.392;2022-08-21T06:39:21;19.80;86.10
33574;DHT22;20085;50.832;4.392;2022-08-21T06:41:48;19.80;86.20
33574;DHT22;20085;50.832;4.392;2022-08-21T06:44:16;19.90;86.40
33574;DHT22;20085;50.832;4.392;2022-08-21T06:46:44;19.80;86.40
33574;DHT22;20085;50.832;4.392;2022-08-21T06:49:10;19.90;86.40
33574;DHT22;20085;50.832;4.392;2022-08-21T06:51:35;19.90;86.50
33574;DHT22;20085;50.832;4.392;2022-08-21T06:54:01;19.90;87.40
33574;DHT22;20085;50.832;4.392;2022-08-21T06:56:26;19.80;86.90
33574;DHT22;20085;50.832;4.392;2022-08-21T06:58:52;19.80;87.10
33574;DHT22;20085;50.832;4.392;2022-08-21T07:01:21;19.90;87.10
33574;DHT22;20085;50.832;4.392;2022-08-21T07:03:49;20.00;87.40
33574;DHT22;20085;50.832;4.392;2022-08-21T07:06:15;20.00;87.50
33574;DHT22;20085;50.832;4.392;2022-08-21T07:08:41;20.00;87.90
33574;DHT22;20085;50.832;4.392;2022-08-21T07:11:19;20.10;88.10
33574;DHT22;20085;50.832;4.392;2022-08-21T07:13:45;20.10;88.40
33574;DHT22;20085;50.832;4.392;2022-08-21T07:16:11;20.10;88.20
33574;DHT22;20085;50.832;4.392;2022-08-21T07:18:37;20.10;88.50
33574;DHT22;20085;50.832;4.392;2022-08-21T07:21:04;20.20;88.80
33574;DHT22;20085;50.832;4.392;2022-08-21T07:23:34;20.30;89.60
33574;DHT22;20085;50.832;4.392;2022-08-21T07:26:00;20.20;89.10
33574;DHT22;20085;50.832;4.392;2022-08-21T07:28:27;20.30;89.50
33574;DHT22;20085;50.832;4.392;2022-08-21T07:30:56;20.40;89.50
33574;DHT22;20085;50.832;4.392;2022-08-21T07:33:22;20.40;89.70
33574;DHT22;20085;50.832;4.392;2022-08-21T07:35:48;20.40;90.00
33574;DHT22;20085;50.832;4.392;2022-08-21T07:38:14;20.30;90.40
33574;DHT22;20085;50.832;4.392;2022-08-21T07:40:40;20.30;90.50
33574;DHT22;20085;50.832;4.392;2022-08-21T07:43:05;20.40;90.50
33574;DHT22;20085;50.832;4.392;2022-08-21T07:45:32;20.40;90.50
33574;DHT22;20085;50.832;4.392;2022-08-21T07:47:58;20.50;90.60
33574;DHT22;20085;50.832;4.392;2022-08-21T07:50:24;20.60;90.60
33574;DHT22;20085;50.832;4.392;2022-08-21T07:52:50;20.60;90.60
33574;DHT22;20085;50.832;4.392;2022-08-21T07:55:18;20.60;90.80
33574;DHT22;20085;50.832;4.392;2022-08-21T07:57:44;20.70;90.90
33574;DHT22;20085;50.832;4.392;2022-08-21T08:00:13;20.70;90.80
33574;DHT22;20085;50.832;4.392;2022-08-21T08:02:39;20.80;90.80
33574;DHT22;20085;50.832;4.392;2022-08-21T08:05:09;20.80;90.60
33574;DHT22;20085;50.832;4.392;2022-08-21T08:07:36;20.90;90.40
33574;DHT22;20085;50.832;4.392;2022-08-21T08:10:03;20.90;90.40
33574;DHT22;20085;50.832;4.392;2022-08-21T08:12:29;20.90;90.30
33574;DHT22;20085;50.832;4.392;2022-08-21T08:15:03;20.90;90.30
33574;DHT22;20085;50.832;4.392;2022-08-21T08:17:34;21.00;90.20
33574;DHT22;20085;50.832;4.392;2022-08-21T08:20:01;21.00;90.00
33574;DHT22;20085;50.832;4.392;2022-08-21T08:22:27;21.10;90.10
33574;DHT22;20085;50.832;4.392;2022-08-21T08:24:53;21.00;90.00
33574;DHT22;20085;50.832;4.392;2022-08-21T08:27:19;21.00;90.10
33574;DHT22;20085;50.832;4.392;2022-08-21T08:29:45;21.10;89.90
33574;DHT22;20085;50.832;4.392;2022-08-21T08:32:11;21.00;90.00
33574;DHT22;20085;50.832;4.392;2022-08-21T08:34:38;21.10;89.90
33574;DHT22;20085;50.832;4.392;2022-08-21T08:37:06;21.10;89.90
33574;DHT22;20085;50.832;4.392;2022-08-21T08:39:32;21.20;90.00
33574;DHT22;20085;50.832;4.392;2022-08-21T08:42:31;21.20;90.00
33574;DHT22;20085;50.832;4.392;2022-08-21T08:45:16;21.20;89.60
33574;DHT22;20085;50.832;4.392;2022-08-21T08:47:48;21.30;88.70
33574;DHT22;20085;50.832;4.392;2022-08-21T08:53:37;21.40;88.00
33574;DHT22;20085;50.832;4.392;2022-08-21T08:56:07;21.40;87.80
33574;DHT22;20085;50.832;4.392;2022-08-21T08:58:37;21.50;87.90
33574;DHT22;20085;50.832;4.392;2022-08-21T09:01:19;21.50;87.10
33574;DHT22;20085;50.832;4.392;2022-08-21T09:03:47;21.60;86.50
33574;DHT22;20085;50.832;4.392;2022-08-21T09:11:59;21.70;85.70
33574;DHT22;20085;50.832;4.392;2022-08-21T09:20:15;21.90;85.00
33574;DHT22;20085;50.832;4.392;2022-08-21T09:25:24;22.00;84.30
33574;DHT22;20085;50.832;4.392;2022-08-21T09:27:50;22.00;84.00
33574;DHT22;20085;50.832;4.392;2022-08-21T09:30:17;22.10;83.70
33574;DHT22;20085;50.832;4.392;2022-08-21T09:32:44;22.10;83.40
33574;DHT22;20085;50.832;4.392;2022-08-21T09:35:17;22.20;83.20
33574;DHT22;20085;50.832;4.392;2022-08-21T09:38:06;22.30;82.60
33574;DHT22;20085;50.832;4.392;2022-08-21T09:40:45;22.50;82.70
33574;DHT22;20085;50.832;4.392;2022-08-21T09:43:18;22.70;81.50
33574;DHT22;20085;50.832;4.392;2022-08-21T09:45:45;22.80;80.50
33574;DHT22;20085;50.832;4.392;2022-08-21T09:48:25;22.80;80.00
33574;DHT22;20085;50.832;4.392;2022-08-21T09:50:52;22.90;79.40
33574;DHT22;20085;50.832;4.392;2022-08-21T09:53:25;23.00;79.00
33574;DHT22;20085;50.832;4.392;2022-08-21T09:55:53;23.10;78.70
33574;DHT22;20085;50.832;4.392;2022-08-21T09:58:39;23.10;78.30
33574;DHT22;20085;50.832;4.392;2022-08-21T10:01:11;23.10;77.40
33574;DHT22;20085;50.832;4.392;2022-08-21T10:03:37;23.10;76.50
33574;DHT22;20085;50.832;4.392;2022-08-21T10:06:06;23.10;77.40
33574;DHT22;20085;50.832;4.392;2022-08-21T10:08:36;23.10;77.70
33574;DHT22;20085;50.832;4.392;2022-08-21T10:11:10;22.90;78.20
33574;DHT22;20085;50.832;4.392;2022-08-21T10:18:42;22.70;79.20
33574;DHT22;20085;50.832;4.392;2022-08-21T10:21:55;22.70;79.40
33574;DHT22;20085;50.832;4.392;2022-08-21T10:29:34;22.90;79.20
33574;DHT22;20085;50.832;4.392;2022-08-21T10:43:52;23.00;78.30
33574;DHT22;20085;50.832;4.392;2022-08-21T10:52:09;23.20;77.90
33574;DHT22;20085;50.832;4.392;2022-08-21T10:54:52;23.30;77.60
33574;DHT22;20085;50.832;4.392;2022-08-21T10:57:47;23.40;77.10
33574;DHT22;20085;50.832;4.392;2022-08-21T11:00:21;23.40;75.90
33574;DHT22;20085;50.832;4.392;2022-08-21T11:03:10;23.50;75.80
33574;DHT22;20085;50.832;4.392;2022-08-21T11:05:52;23.50;76.10
33574;DHT22;20085;50.832;4.392;2022-08-21T11:08:57;23.40;76.60
33574;DHT22;20085;50.832;4.392;2022-08-21T11:11:43;23.70;76.00
33574;DHT22;20085;50.832;4.392;2022-08-21T11:17:13;23.70;75.80
33574;DHT22;20085;50.832;4.392;2022-08-21T11:19:50;23.60;75.80
33574;DHT22;20085;50.832;4.392;2022-08-21T11:29:48;23.60;76.00
33574;DHT22;20085;50.832;4.392;2022-08-21T11:43:54;23.70;74.60
33574;DHT22;20085;50.832;4.392;2022-08-21T11:46:35;23.70;74.30
33574;DHT22;20085;50.832;4.392;2022-08-21T11:51:48;23.70;73.90
33574;DHT22;20085;50.832;4.392;2022-08-21T11:54:23;24.00;73.80
33574;DHT22;20085;50.832;4.392;2022-08-21T11:56:59;24.20;73.40
33574;DHT22;20085;50.832;4.392;2022-08-21T11:59:40;24.20;73.20
33574;DHT22;20085;50.832;4.392;2022-08-21T12:02:15;24.20;73.10
33574;DHT22;20085;50.832;4.392;2022-08-21T12:04:45;24.20;72.90
33574;DHT22;20085;50.832;4.392;2022-08-21T12:07:28;24.30;72.70
33574;DHT22;20085;50.832;4.392;2022-08-21T12:09:56;24.30;72.60
33574;DHT22;20085;50.832;4.392;2022-08-21T12:12:29;24.40;70.70
33574;DHT22;20085;50.832;4.392;2022-08-21T12:15:13;24.40;70.10
33574;DHT22;20085;50.832;4.392;2022-08-21T12:17:41;24.50;69.80
33574;DHT22;20085;50.832;4.392;2022-08-21T12:23:05;24.60;69.30
33574;DHT22;20085;50.832;4.392;2022-08-21T12:25:44;24.80;68.50
33574;DHT22;20085;50.832;4.392;2022-08-21T12:28:14;24.70;68.60
33574;DHT22;20085;50.832;4.392;2022-08-21T12:30:44;24.70;68.00
33574;DHT22;20085;50.832;4.392;2022-08-21T12:33:32;24.70;68.90
33574;DHT22;20085;50.832;4.392;2022-08-21T12:36:22;24.80;68.60
33574;DHT22;20085;50.832;4.392;2022-08-21T12:39:01;24.80;68.40
33574;DHT22;20085;50.832;4.392;2022-08-21T12:42:29;24.80;68.50
33574;DHT22;20085;50.832;4.392;2022-08-21T12:44:53;24.90;68.00
33574;DHT22;20085;50.832;4.392;2022-08-21T12:50:29;24.80;66.60
33574;DHT22;20085;50.832;4.392;2022-08-21T12:53:15;24.80;66.50
33574;DHT22;20085;50.832;4.392;2022-08-21T12:55:47;24.80;65.70
33574;DHT22;20085;50.832;4.392;2022-08-21T12:58:24;25.00;65.70
33574;DHT22;20085;50.832;4.392;2022-08-21T13:00:59;25.10;65.60
33574;DHT22;20085;50.832;4.392;2022-08-21T13:03:25;25.10;65.90
33574;DHT22;20085;50.832;4.392;2022-08-21T13:05:51;25.20;64.90
33574;DHT22;20085;50.832;4.392;2022-08-21T13:08:20;25.40;63.60
33574;DHT22;20085;50.832;4.392;2022-08-21T13:10:48;25.40;64.00
33574;DHT22;20085;50.832;4.392;2022-08-21T13:13:20;25.50;63.70
33574;DHT22;20085;50.832;4.392;2022-08-21T13:15:47;25.50;63.30
33574;DHT22;20085;50.832;4.392;2022-08-21T13:18:21;25.60;62.80
33574;DHT22;20085;50.832;4.392;2022-08-21T13:20:48;25.50;62.90
33574;DHT22;20085;50.832;4.392;2022-08-21T13:23:28;25.50;63.00
33574;DHT22;20085;50.832;4.392;2022-08-21T13:25:55;25.70;63.20
33574;DHT22;20085;50.832;4.392;2022-08-21T13:28:22;25.90;62.20
33574;DHT22;20085;50.832;4.392;2022-08-21T13:30:50;25.80;62.20
33574;DHT22;20085;50.832;4.392;2022-08-21T13:33:19;25.70;62.70
33574;DHT22;20085;50.832;4.392;2022-08-21T13:38:14;25.60;63.40
33574;DHT22;20085;50.832;4.392;2022-08-21T13:40:50;25.60;63.20
33574;DHT22;20085;50.832;4.392;2022-08-21T13:43:19;25.60;62.70
33574;DHT22;20085;50.832;4.392;2022-08-21T13:45:51;25.60;63.70
33574;DHT22;20085;50.832;4.392;2022-08-21T13:48:17;25.60;64.00
33574;DHT22;20085;50.832;4.392;2022-08-21T13:50:44;25.60;64.30
33574;DHT22;20085;50.832;4.392;2022-08-21T13:53:32;25.60;64.00
33574;DHT22;20085;50.832;4.392;2022-08-21T13:55:59;25.70;63.60
33574;DHT22;20085;50.832;4.392;2022-08-21T14:00:55;25.70;63.10
33574;DHT22;20085;50.832;4.392;2022-08-21T14:03:41;25.50;63.40
33574;DHT22;20085;50.832;4.392;2022-08-21T14:06:23;25.40;63.70
33574;DHT22;20085;50.832;4.392;2022-08-21T14:09:10;25.50;63.70
33574;DHT22;20085;50.832;4.392;2022-08-21T14:11:36;25.50;63.90
33574;DHT22;20085;50.832;4.392;2022-08-21T14:14:19;25.40;64.10
33574;DHT22;20085;50.832;4.392;2022-08-21T14:16:54;25.40;64.30
33574;DHT22;20085;50.832;4.392;2022-08-21T14:19:39;25.40;64.50
33574;DHT22;20085;50.832;4.392;2022-08-21T14:24:49;25.30;64.60
33574;DHT22;20085;50.832;4.392;2022-08-21T14:27:17;25.30;64.70
33574;DHT22;20085;50.832;4.392;2022-08-21T14:29:44;25.20;64.80
33574;DHT22;20085;50.832;4.392;2022-08-21T14:32:35;25.20;64.80
33574;DHT22;20085;50.832;4.392;2022-08-21T14:35:01;25.20;65.00
33574;DHT22;20085;50.832;4.392;2022-08-21T14:37:27;25.30;65.00
33574;DHT22;20085;50.832;4.392;2022-08-21T14:39:56;25.30;65.30
33574;DHT22;20085;50.832;4.392;2022-08-21T14:42:22;25.30;65.00
33574;DHT22;20085;50.832;4.392;2022-08-21T14:44:47;25.30;65.20
33574;DHT22;20085;50.832;4.392;2022-08-21T14:47:13;25.40;65.10
33574;DHT22;20085;50.832;4.392;2022-08-21T14:49:39;25.40;64.80
33574;DHT22;20085;50.832;4.392;2022-08-21T14:52:07;25.60;64.40
33574;DHT22;20085;50.832;4.392;2022-08-21T14:54:33;25.60;64.10
33574;DHT22;20085;50.832;4.392;2022-08-21T14:57:02;25.80;64.10
33574;DHT22;20085;50.832;4.392;2022-08-21T14:59:29;25.90;63.60
33574;DHT22;20085;50.832;4.392;2022-08-21T15:01:55;25.90;63.00
33574;DHT22;20085;50.832;4.392;2022-08-21T15:04:24;25.90;63.00
33574;DHT22;20085;50.832;4.392;2022-08-21T15:06:52;25.90;62.80
33574;DHT22;20085;50.832;4.392;2022-08-21T15:09:18;25.80;62.90
33574;DHT22;20085;50.832;4.392;2022-08-21T15:11:44;25.80;63.10
33574;DHT22;20085;50.832;4.392;2022-08-21T15:14:13;25.70;63.30
33574;DHT22;20085;50.832;4.392;2022-08-21T15:16:42;25.80;63.60
33574;DHT22;20085;50.832;4.392;2022-08-21T15:19:08;25.70;63.30
33574;DHT22;20085;50.832;4.392;2022-08-21T15:21:34;25.70;63.10
33574;DHT22;20085;50.832;4.392;2022-08-21T15:23:59;25.70;63.00
33574;DHT22;20085;50.832;4.392;2022-08-21T15:26:40;25.60;62.90
33574;DHT22;20085;50.832;4.392;2022-08-21T15:29:08;25.70;62.70
33574;DHT22;20085;50.832;4.392;2022-08-21T15:31:35;25.60;62.60
33574;DHT22;20085;50.832;4.392;2022-08-21T15:34:01;25.70;62.60
33574;DHT22;20085;50.832;4.392;2022-08-21T15:36:28;25.70;62.80
33574;DHT22;20085;50.832;4.392;2022-08-21T15:38:53;25.50;63.70
33574;DHT22;20085;50.832;4.392;2022-08-21T15:41:19;25.50;63.70
33574;DHT22;20085;50.832;4.392;2022-08-21T15:43:47;25.50;63.50
33574;DHT22;20085;50.832;4.392;2022-08-21T15:46:16;25.50;63.40
33574;DHT22;20085;50.832;4.392;2022-08-21T15:48:42;25.50;63.20
33574;DHT22;20085;50.832;4.392;2022-08-21T15:51:10;25.50;62.80
33574;DHT22;20085;50.832;4.392;2022-08-21T15:53:36;25.50;63.10
33574;DHT22;20085;50.832;4.392;2022-08-21T15:56:19;25.50;63.20
33574;DHT22;20085;50.832;4.392;2022-08-21T15:58:47;25.50;63.40
33574;DHT22;20085;50.832;4.392;2022-08-21T16:01:13;25.40;62.00
33574;DHT22;20085;50.832;4.392;2022-08-21T16:03:39;25.40;61.70
33574;DHT22;20085;50.832;4.392;2022-08-21T16:06:05;25.40;61.70
33574;DHT22;20085;50.832;4.392;2022-08-21T16:08:31;25.40;61.40
33574;DHT22;20085;50.832;4.392;2022-08-21T16:10:56;25.40;61.60
33574;DHT22;20085;50.832;4.392;2022-08-21T16:13:33;25.30;62.10
33574;DHT22;20085;50.832;4.392;2022-08-21T16:16:01;25.30;62.20
33574;DHT22;20085;50.832;4.392;2022-08-21T16:18:27;25.30;62.40
33574;DHT22;20085;50.832;4.392;2022-08-21T16:20:53;25.30;62.60
33574;DHT22;20085;50.832;4.392;2022-08-21T16:23:18;25.20;62.70
33574;DHT22;20085;50.832;4.392;2022-08-21T16:25:44;25.20;63.10
33574;DHT22;20085;50.832;4.392;2022-08-21T16:28:13;25.20;63.60
33574;DHT22;20085;50.832;4.392;2022-08-21T16:30:41;25.20;63.80
33574;DHT22;20085;50.832;4.392;2022-08-21T16:33:17;25.20;63.80
33574;DHT22;20085;50.832;4.392;2022-08-21T16:35:43;25.20;63.90
33574;DHT22;20085;50.832;4.392;2022-08-21T16:38:09;25.20;63.80
33574;DHT22;20085;50.832;4.392;2022-08-21T16:40:35;25.20;64.00
33574;DHT22;20085;50.832;4.392;2022-08-21T16:43:01;25.20;63.50
33574;DHT22;20085;50.832;4.392;2022-08-21T16:45:27;25.20;63.30
33574;DHT22;20085;50.832;4.392;2022-08-21T16:47:52;25.20;63.30
33574;DHT22;20085;50.832;4.392;2022-08-21T16:50:23;25.20;63.00
33574;DHT22;20085;50.832;4.392;2022-08-21T16:52:49;25.30;63.10
33574;DHT22;20085;50.832;4.392;2022-08-21T16:55:15;25.30;62.90
33574;DHT22;20085;50.832;4.392;2022-08-21T16:57:40;25.30;63.00
33574;DHT22;20085;50.832;4.392;2022-08-21T17:00:07;25.30;62.90
33574;DHT22;20085;50.832;4.392;2022-08-21T17:02:39;25.40;62.60
33574;DHT22;20085;50.832;4.392;2022-08-21T17:05:07;25.40;62.30
33574;DHT22;20085;50.832;4.392;2022-08-21T17:07:34;25.40;62.00
33574;DHT22;20085;50.832;4.392;2022-08-21T17:09:59;25.40;62.50